sensor_id;sensor_type;location;lat;lon;timestamp;pressure;altitude;pressure_sealevel;temperature;humidity
73306;BME280;61530;51.158;0.880;2022-10-30T00:00:21;1012.02;;;14.75;48.7327
73306;BME280;61530;51.158;0.880;2022-10-30T00:01:27;1011.94;;;14.75;48.8791
73306;BME280;61530;51.158;0.880;2022-10-30T00:02:33;1011.91;;;14.75;48.2271
73306;BME280;61530;51.158;0.880;2022-10-30T00:03:33;1011.9;;;14.6875;48.3749
73306;BME280;61530;51.158;0.880;2022-10-30T00:04:39;1011.92;;;14.6875;48.4766
73306;BME280;61530;51.158;0.880;2022-10-30T00:05:40;1011.9;;;14.75;49.0145
73306;BME280;61530;51.158;0.880;2022-10-30T00:06:45;1011.98;;;14.75;49.4294
73306;BME280;61530;51.158;0.880;2022-10-30T00:07:51;1012.05;;;14.75;49.4076
73306;BME280;61530;51.158;0.880;2022-10-30T00:08:57;1012.04;;;14.6875;49.1386
73306;BME280;61530;51.158;0.880;2022-10-30T00:09:57;1012.07;;;14.6875;49.2705
73306;BME280;61530;51.158;0.880;2022-10-30T00:11:07;1012.02;;;14.6875;48.9175
73306;BME280;61530;51.158;0.880;2022-10-30T00:12:03;1012.01;;;14.625;49.3999
73306;BME280;61530;51.158;0.880;2022-10-30T00:13:10;1012.0;;;14.75;48.9388
73306;BME280;61530;51.158;0.880;2022-10-30T00:14:15;1011.98;;;14.6875;48.96
73306;BME280;61530;51.158;0.880;2022-10-30T00:15:21;1012.0;;;14.6875;49.207
73306;BME280;61530;51.158;0.880;2022-10-30T00:16:21;1011.96;;;14.6875;49.1486
73306;BME280;61530;51.158;0.880;2022-10-30T00:17:27;1011.96;;;14.625;49.2853
73306;BME280;61530;51.158;0.880;2022-10-30T00:18:27;1012.02;;;14.75;49.7062
73306;BME280;61530;51.158;0.880;2022-10-30T00:19:33;1012.07;;;14.6875;48.9183
73306;BME280;61530;51.158;0.880;2022-10-30T00:20:39;1012.17;;;14.6875;48.7883
73306;BME280;61530;51.158;0.880;2022-10-30T00:21:45;1012.2;;;14.6875;49.6169
73306;BME280;61530;51.158;0.880;2022-10-30T00:22:45;1012.24;;;14.6875;48.8798
73306;BME280;61530;51.158;0.880;2022-10-30T00:23:52;1012.23;;;14.6875;48.8682
73306;BME280;61530;51.158;0.880;2022-10-30T00:24:51;1012.26;;;14.625;49.1153
73306;BME280;61530;51.158;0.880;2022-10-30T00:26:02;1012.32;;;14.625;48.7656
73306;BME280;61530;51.158;0.880;2022-10-30T00:27:03;1012.33;;;14.6875;48.7709
73306;BME280;61530;51.158;0.880;2022-10-30T00:28:09;1012.37;;;14.6875;48.7209
73306;BME280;61530;51.158;0.880;2022-10-30T00:29:09;1012.34;;;14.6875;48.524
73306;BME280;61530;51.158;0.880;2022-10-30T00:30:15;1012.36;;;14.6875;48.6505
73306;BME280;61530;51.158;0.880;2022-10-30T00:31:15;1012.39;;;14.6875;48.8057
73306;BME280;61530;51.158;0.880;2022-10-30T00:32:21;1012.41;;;14.625;48.6568
73306;BME280;61530;51.158;0.880;2022-10-30T00:33:27;1012.44;;;14.6875;48.2722
73306;BME280;61530;51.158;0.880;2022-10-30T00:34:33;1012.44;;;14.6875;48.6971
73306;BME280;61530;51.158;0.880;2022-10-30T00:35:33;1012.41;;;14.625;48.15
73306;BME280;61530;51.158;0.880;2022-10-30T00:36:39;1012.4;;;14.6875;48.5064
73306;BME280;61530;51.158;0.880;2022-10-30T00:37:39;1012.36;;;14.6875;48.3287
73306;BME280;61530;51.158;0.880;2022-10-30T00:38:45;1012.32;;;14.6875;48.333
73306;BME280;61530;51.158;0.880;2022-10-30T00:39:51;1012.23;;;14.6875;48.3696
73306;BME280;61530;51.158;0.880;2022-10-30T00:40:57;1012.22;;;14.6875;48.5093
73306;BME280;61530;51.158;0.880;2022-10-30T00:41:57;1012.23;;;14.6875;48.4858
73306;BME280;61530;51.158;0.880;2022-10-30T00:43:03;1012.24;;;14.625;48.378
73306;BME280;61530;51.158;0.880;2022-10-30T00:44:31;1012.24;;;14.625;48.5558
73306;BME280;61530;51.158;0.880;2022-10-30T00:45:11;1012.31;;;14.625;48.6447
73306;BME280;61530;51.158;0.880;2022-10-30T00:46:20;1012.4;;;14.625;47.6606
73306;BME280;61530;51.158;0.880;2022-10-30T00:47:25;1012.39;;;14.6875;48.3111
73306;BME280;61530;51.158;0.880;2022-10-30T00:48:24;1012.4;;;14.625;48.643
73306;BME280;61530;51.158;0.880;2022-10-30T00:49:27;1012.4;;;14.625;48.695
73306;BME280;61530;51.158;0.880;2022-10-30T00:50:30;1012.4;;;14.6875;48.3394
73306;BME280;61530;51.158;0.880;2022-10-30T00:51:34;1012.38;;;14.625;48.3626
73306;BME280;61530;51.158;0.880;2022-10-30T00:52:43;1012.4;;;14.625;48.0632
73306;BME280;61530;51.158;0.880;2022-10-30T00:53:46;1012.38;;;14.6875;48.4076
73306;BME280;61530;51.158;0.880;2022-10-30T00:54:45;1012.37;;;14.625;48.5901
73306;BME280;61530;51.158;0.880;2022-10-30T00:55:54;1012.34;;;14.5625;48.2007
73306;BME280;61530;51.158;0.880;2022-10-30T00:56:51;1012.32;;;14.625;48.7968
73306;BME280;61530;51.158;0.880;2022-10-30T00:57:57;1012.27;;;14.6875;48.0524
73306;BME280;61530;51.158;0.880;2022-10-30T00:59:07;1012.22;;;14.625;48.671
73306;BME280;61530;51.158;0.880;2022-10-30T01:00:10;1012.21;;;14.625;48.8094
73306;BME280;61530;51.158;0.880;2022-10-30T01:01:13;1012.18;;;14.625;48.5262
73306;BME280;61530;51.158;0.880;2022-10-30T01:02:16;1012.14;;;14.625;49.1314
73306;BME280;61530;51.158;0.880;2022-10-30T01:03:16;1012.1;;;14.5625;49.2222
73306;BME280;61530;51.158;0.880;2022-10-30T01:04:21;1012.05;;;14.625;48.3185
73306;BME280;61530;51.158;0.880;2022-10-30T01:05:23;1012.0;;;14.625;48.7915
73306;BME280;61530;51.158;0.880;2022-10-30T01:06:28;1011.98;;;14.625;48.9529
73306;BME280;61530;51.158;0.880;2022-10-30T01:07:27;1011.97;;;14.625;49.0399
73306;BME280;61530;51.158;0.880;2022-10-30T01:08:33;1011.96;;;14.625;48.8627
73306;BME280;61530;51.158;0.880;2022-10-30T01:09:33;1011.92;;;14.625;48.5799
73306;BME280;61530;51.158;0.880;2022-10-30T01:10:39;1011.95;;;14.5625;48.5926
73306;BME280;61530;51.158;0.880;2022-10-30T01:11:45;1011.91;;;14.625;48.959
73306;BME280;61530;51.158;0.880;2022-10-30T01:12:52;1011.87;;;14.625;48.682
73306;BME280;61530;51.158;0.880;2022-10-30T01:13:53;1011.8;;;14.625;47.9726
73306;BME280;61530;51.158;0.880;2022-10-30T01:14:58;1011.77;;;14.625;49.1115
73306;BME280;61530;51.158;0.880;2022-10-30T01:16:12;1011.75;;;14.625;48.6855
73306;BME280;61530;51.158;0.880;2022-10-30T01:17:10;1011.72;;;14.6875;48.8963
73306;BME280;61530;51.158;0.880;2022-10-30T01:18:07;1011.69;;;14.5625;48.8163
73306;BME280;61530;51.158;0.880;2022-10-30T01:19:11;1011.68;;;14.5625;49.4843
73306;BME280;61530;51.158;0.880;2022-10-30T01:20:22;1011.69;;;14.625;48.8035
73306;BME280;61530;51.158;0.880;2022-10-30T01:21:17;1011.7;;;14.625;49.1888
73306;BME280;61530;51.158;0.880;2022-10-30T01:22:28;1011.73;;;14.625;48.5865
73306;BME280;61530;51.158;0.880;2022-10-30T01:23:30;1011.78;;;14.5625;48.313
73306;BME280;61530;51.158;0.880;2022-10-30T01:24:32;1011.83;;;14.625;49.2142
73306;BME280;61530;51.158;0.880;2022-10-30T01:25:41;1011.82;;;14.5625;48.4273
73306;BME280;61530;51.158;0.880;2022-10-30T01:26:40;1011.78;;;14.5625;49.7202
73306;BME280;61530;51.158;0.880;2022-10-30T01:27:40;1011.78;;;14.5625;48.9509
73306;BME280;61530;51.158;0.880;2022-10-30T01:28:54;1011.82;;;14.625;48.3239
73306;BME280;61530;51.158;0.880;2022-10-30T01:29:54;1011.81;;;14.625;48.8525
73306;BME280;61530;51.158;0.880;2022-10-30T01:30:57;1011.84;;;14.625;48.7146
73306;BME280;61530;51.158;0.880;2022-10-30T01:32:03;1011.81;;;14.5625;48.5881
73306;BME280;61530;51.158;0.880;2022-10-30T01:33:07;1011.82;;;14.625;48.6573
73306;BME280;61530;51.158;0.880;2022-10-30T01:34:05;1011.83;;;14.625;48.7715
73306;BME280;61530;51.158;0.880;2022-10-30T01:35:09;1011.81;;;14.5625;49.012
73306;BME280;61530;51.158;0.880;2022-10-30T01:36:09;1011.82;;;14.5625;48.1823
73306;BME280;61530;51.158;0.880;2022-10-30T01:37:15;1011.87;;;14.625;48.0048
73306;BME280;61530;51.158;0.880;2022-10-30T01:38:14;1011.87;;;14.625;48.3725
73306;BME280;61530;51.158;0.880;2022-10-30T01:39:18;1011.88;;;14.5625;48.6361
73306;BME280;61530;51.158;0.880;2022-10-30T01:40:21;1011.89;;;14.625;48.2276
73306;BME280;61530;51.158;0.880;2022-10-30T01:41:27;1011.91;;;14.625;48.3493
73306;BME280;61530;51.158;0.880;2022-10-30T01:42:47;1011.91;;;14.5625;48.4186
73306;BME280;61530;51.158;0.880;2022-10-30T01:43:34;1011.92;;;14.5625;48.3203
73306;BME280;61530;51.158;0.880;2022-10-30T01:44:33;1011.92;;;14.625;48.6758
73306;BME280;61530;51.158;0.880;2022-10-30T01:45:55;1011.88;;;14.625;48.365
73306;BME280;61530;51.158;0.880;2022-10-30T01:46:59;1011.9;;;14.625;48.7557
73306;BME280;61530;51.158;0.880;2022-10-30T01:48:04;1011.92;;;14.625;47.4408
73306;BME280;61530;51.158;0.880;2022-10-30T01:49:11;1011.97;;;14.625;47.3132
73306;BME280;61530;51.158;0.880;2022-10-30T01:50:06;1011.98;;;14.625;47.3217
73306;BME280;61530;51.158;0.880;2022-10-30T01:51:04;1011.96;;;14.5;47.5359
73306;BME280;61530;51.158;0.880;2022-10-30T01:52:12;1011.98;;;14.5625;47.1847
73306;BME280;61530;51.158;0.880;2022-10-30T01:53:17;1011.99;;;14.5625;47.4909
73306;BME280;61530;51.158;0.880;2022-10-30T01:54:20;1011.95;;;14.5;47.9571
73306;BME280;61530;51.158;0.880;2022-10-30T01:55:25;1011.96;;;14.5625;48.2841
73306;BME280;61530;51.158;0.880;2022-10-30T01:56:29;1011.98;;;14.5;47.5311
73306;BME280;61530;51.158;0.880;2022-10-30T01:57:34;1011.99;;;14.5625;47.7206
73306;BME280;61530;51.158;0.880;2022-10-30T01:58:39;1011.96;;;14.5625;47.7961
73306;BME280;61530;51.158;0.880;2022-10-30T01:59:37;1011.94;;;14.5625;47.7961
73306;BME280;61530;51.158;0.880;2022-10-30T02:00:41;1011.9;;;14.5;48.6051
73306;BME280;61530;51.158;0.880;2022-10-30T02:01:39;1011.83;;;14.5;48.0406
73306;BME280;61530;51.158;0.880;2022-10-30T02:02:45;1011.79;;;14.5;48.6111
73306;BME280;61530;51.158;0.880;2022-10-30T02:03:45;1011.83;;;14.5;48.4858
73306;BME280;61530;51.158;0.880;2022-10-30T02:04:53;1011.87;;;14.5;48.1152
73306;BME280;61530;51.158;0.880;2022-10-30T02:05:59;1011.87;;;14.5;47.7952
73306;BME280;61530;51.158;0.880;2022-10-30T02:07:00;1011.87;;;14.4375;47.958
73306;BME280;61530;51.158;0.880;2022-10-30T02:08:05;1011.87;;;14.5;47.5036
73306;BME280;61530;51.158;0.880;2022-10-30T02:09:14;1011.84;;;14.5;47.6135
73306;BME280;61530;51.158;0.880;2022-10-30T02:10:16;1011.83;;;14.5625;47.7228
73306;BME280;61530;51.158;0.880;2022-10-30T02:11:17;1011.87;;;14.5625;47.6431
73306;BME280;61530;51.158;0.880;2022-10-30T02:12:17;1011.88;;;14.5625;47.8331
73306;BME280;61530;51.158;0.880;2022-10-30T02:13:23;1011.89;;;14.4375;48.1892
73306;BME280;61530;51.158;0.880;2022-10-30T02:14:27;1011.89;;;14.5;48.4986
73306;BME280;61530;51.158;0.880;2022-10-30T02:15:29;1011.89;;;14.4375;47.9598
73306;BME280;61530;51.158;0.880;2022-10-30T02:16:29;1011.89;;;14.5;47.9774
73306;BME280;61530;51.158;0.880;2022-10-30T02:17:35;1011.85;;;14.5625;48.0067
73306;BME280;61530;51.158;0.880;2022-10-30T02:18:41;1011.8;;;14.5;48.5912
73306;BME280;61530;51.158;0.880;2022-10-30T02:19:47;1011.76;;;14.5;48.3403
73306;BME280;61530;51.158;0.880;2022-10-30T02:20:47;1011.74;;;14.5;48.5874
73306;BME280;61530;51.158;0.880;2022-10-30T02:21:53;1011.74;;;14.5;48.7421
73306;BME280;61530;51.158;0.880;2022-10-30T02:22:59;1011.78;;;14.5625;49.3091
73306;BME280;61530;51.158;0.880;2022-10-30T02:24:05;1011.77;;;14.5625;48.7626
73306;BME280;61530;51.158;0.880;2022-10-30T02:25:06;1011.77;;;14.5;48.9221
73306;BME280;61530;51.158;0.880;2022-10-30T02:26:11;1011.77;;;14.5625;48.8526
73306;BME280;61530;51.158;0.880;2022-10-30T02:27:11;1011.78;;;14.5;48.8995
73306;BME280;61530;51.158;0.880;2022-10-30T02:28:17;1011.79;;;14.5625;48.7106
73306;BME280;61530;51.158;0.880;2022-10-30T02:29:17;1011.77;;;14.5625;48.7576
73306;BME280;61530;51.158;0.880;2022-10-30T02:30:23;1011.79;;;14.5625;48.6822
73306;BME280;61530;51.158;0.880;2022-10-30T02:31:29;1011.79;;;14.5625;48.7289
73306;BME280;61530;51.158;0.880;2022-10-30T02:32:35;1011.81;;;14.4375;48.6248
73306;BME280;61530;51.158;0.880;2022-10-30T02:33:35;1011.81;;;14.5;48.4984
73306;BME280;61530;51.158;0.880;2022-10-30T02:34:41;1011.84;;;14.625;48.5324
73306;BME280;61530;51.158;0.880;2022-10-30T02:35:47;1011.85;;;14.5625;48.5677
73306;BME280;61530;51.158;0.880;2022-10-30T02:36:53;1011.85;;;14.5625;48.6016
73306;BME280;61530;51.158;0.880;2022-10-30T02:37:53;1011.84;;;14.5625;48.6066
73306;BME280;61530;51.158;0.880;2022-10-30T02:38:59;1011.85;;;14.5;48.7742
73306;BME280;61530;51.158;0.880;2022-10-30T02:39:59;1011.86;;;14.625;48.1666
73306;BME280;61530;51.158;0.880;2022-10-30T02:41:05;1011.89;;;14.5;48.1621
73306;BME280;61530;51.158;0.880;2022-10-30T02:42:05;1011.91;;;14.5;48.1344
73306;BME280;61530;51.158;0.880;2022-10-30T02:43:11;1011.88;;;14.5;48.0077
73306;BME280;61530;51.158;0.880;2022-10-30T02:44:17;1011.84;;;14.5625;48.2963
73306;BME280;61530;51.158;0.880;2022-10-30T02:45:23;1011.83;;;14.5;47.9043
73306;BME280;61530;51.158;0.880;2022-10-30T02:46:24;1011.8;;;14.5;48.7891
73306;BME280;61530;51.158;0.880;2022-10-30T02:47:29;1011.79;;;14.5625;48.7375
73306;BME280;61530;51.158;0.880;2022-10-30T02:48:35;1011.76;;;14.5625;48.7657
73306;BME280;61530;51.158;0.880;2022-10-30T02:49:41;1011.77;;;14.5;48.2489
73306;BME280;61530;51.158;0.880;2022-10-30T02:50:41;1011.74;;;14.5;48.0476
73306;BME280;61530;51.158;0.880;2022-10-30T02:51:47;1011.72;;;14.5;48.7418
73306;BME280;61530;51.158;0.880;2022-10-30T02:52:53;1011.72;;;14.5625;48.9655
73306;BME280;61530;51.158;0.880;2022-10-30T02:54:00;1011.78;;;14.625;48.5357
73306;BME280;61530;51.158;0.880;2022-10-30T02:54:59;1011.83;;;14.5625;48.1057
73306;BME280;61530;51.158;0.880;2022-10-30T02:56:07;1011.89;;;14.5625;47.7956
73306;BME280;61530;51.158;0.880;2022-10-30T02:57:05;1011.91;;;14.5625;47.6283
73306;BME280;61530;51.158;0.880;2022-10-30T02:58:11;1011.92;;;14.5;47.9687
73306;BME280;61530;51.158;0.880;2022-10-30T02:59:11;1011.95;;;14.5625;48.3999
73306;BME280;61530;51.158;0.880;2022-10-30T03:00:17;1011.93;;;14.5;48.6677
73306;BME280;61530;51.158;0.880;2022-10-30T03:01:18;1011.91;;;14.5;48.6286
73306;BME280;61530;51.158;0.880;2022-10-30T03:02:23;1011.92;;;14.5;49.0623
73306;BME280;61530;51.158;0.880;2022-10-30T03:03:29;1011.93;;;14.4375;49.0524
73306;BME280;61530;51.158;0.880;2022-10-30T03:04:35;1012.0;;;14.5625;48.7479
73306;BME280;61530;51.158;0.880;2022-10-30T03:05:41;1011.99;;;14.5;48.4102
73306;BME280;61530;51.158;0.880;2022-10-30T03:06:47;1012.01;;;14.5625;48.6459
73306;BME280;61530;51.158;0.880;2022-10-30T03:07:54;1012.0;;;14.5;48.0605
73306;BME280;61530;51.158;0.880;2022-10-30T03:08:53;1011.97;;;14.5625;48.6116
73306;BME280;61530;51.158;0.880;2022-10-30T03:09:53;1011.93;;;14.5;48.619
73306;BME280;61530;51.158;0.880;2022-10-30T03:11:00;1011.92;;;14.5625;48.274
73306;BME280;61530;51.158;0.880;2022-10-30T03:12:05;1011.97;;;14.5625;48.0561
73306;BME280;61530;51.158;0.880;2022-10-30T03:13:11;1011.94;;;14.5;48.1042
73306;BME280;61530;51.158;0.880;2022-10-30T03:14:16;1011.91;;;14.5625;48.6658
73306;BME280;61530;51.158;0.880;2022-10-30T03:15:17;1011.9;;;14.5;48.8081
73306;BME280;61530;51.158;0.880;2022-10-30T03:16:18;1011.87;;;14.5;49.0775
73306;BME280;61530;51.158;0.880;2022-10-30T03:17:23;1011.83;;;14.4375;49.0182
73306;BME280;61530;51.158;0.880;2022-10-30T03:18:29;1011.82;;;14.5625;48.591
73306;BME280;61530;51.158;0.880;2022-10-30T03:19:35;1011.81;;;14.5;49.1753
73306;BME280;61530;51.158;0.880;2022-10-30T03:20:35;1011.8;;;14.5;48.8989
73306;BME280;61530;51.158;0.880;2022-10-30T03:21:41;1011.84;;;14.5625;49.606
73306;BME280;61530;51.158;0.880;2022-10-30T03:22:41;1011.86;;;14.5;48.9852
73306;BME280;61530;51.158;0.880;2022-10-30T03:23:47;1011.89;;;14.5;49.0393
73306;BME280;61530;51.158;0.880;2022-10-30T03:24:47;1011.88;;;14.5625;48.8616
73306;BME280;61530;51.158;0.880;2022-10-30T03:25:53;1011.87;;;14.5625;48.1102
73306;BME280;61530;51.158;0.880;2022-10-30T03:26:59;1011.86;;;14.5625;48.2601
73306;BME280;61530;51.158;0.880;2022-10-30T03:28:05;1011.85;;;14.5625;48.4497
73306;BME280;61530;51.158;0.880;2022-10-30T03:29:11;1011.8;;;14.5;48.4533
73306;BME280;61530;51.158;0.880;2022-10-30T03:30:17;1011.81;;;14.5;48.4681
73306;BME280;61530;51.158;0.880;2022-10-30T03:31:18;1011.75;;;14.5625;48.4924
73306;BME280;61530;51.158;0.880;2022-10-30T03:32:23;1011.73;;;14.5;48.7425
73306;BME280;61530;51.158;0.880;2022-10-30T03:33:23;1011.73;;;14.5;48.9996
73306;BME280;61530;51.158;0.880;2022-10-30T03:34:29;1011.75;;;14.5625;48.9165
73306;BME280;61530;51.158;0.880;2022-10-30T03:35:36;1011.73;;;14.5625;48.8965
73306;BME280;61530;51.158;0.880;2022-10-30T03:36:40;1011.71;;;14.5;49.142
73306;BME280;61530;51.158;0.880;2022-10-30T03:37:41;1011.71;;;14.5;49.5863
73306;BME280;61530;51.158;0.880;2022-10-30T03:38:47;1011.7;;;14.5;48.8873
73306;BME280;61530;51.158;0.880;2022-10-30T03:39:47;1011.7;;;14.5625;48.6337
73306;BME280;61530;51.158;0.880;2022-10-30T03:40:53;1011.68;;;14.5;48.4276
73306;BME280;61530;51.158;0.880;2022-10-30T03:41:59;1011.7;;;14.5;48.9051
73306;BME280;61530;51.158;0.880;2022-10-30T03:43:04;1011.69;;;14.5;48.8022
73306;BME280;61530;51.158;0.880;2022-10-30T03:44:05;1011.65;;;14.5;48.6757
73306;BME280;61530;51.158;0.880;2022-10-30T03:45:11;1011.62;;;14.4375;48.3833
73306;BME280;61530;51.158;0.880;2022-10-30T03:46:16;1011.59;;;14.5;48.6011
73306;BME280;61530;51.158;0.880;2022-10-30T03:47:17;1011.65;;;14.5;48.2314
73306;BME280;61530;51.158;0.880;2022-10-30T03:48:26;1011.64;;;14.5625;48.7496
73306;BME280;61530;51.158;0.880;2022-10-30T03:49:28;1011.64;;;14.4375;48.6954
73306;BME280;61530;51.158;0.880;2022-10-30T03:50:29;1011.64;;;14.5625;48.7661
73306;BME280;61530;51.158;0.880;2022-10-30T03:51:35;1011.64;;;14.5;49.0251
73306;BME280;61530;51.158;0.880;2022-10-30T03:52:35;1011.62;;;14.5625;48.7251
73306;BME280;61530;51.158;0.880;2022-10-30T03:53:41;1011.54;;;14.5;48.9421
73306;BME280;61530;51.158;0.880;2022-10-30T03:54:47;1011.51;;;14.5;49.2588
73306;BME280;61530;51.158;0.880;2022-10-30T03:55:56;1011.48;;;14.5625;48.8654
73306;BME280;61530;51.158;0.880;2022-10-30T03:56:53;1011.48;;;14.5;49.4167
73306;BME280;61530;51.158;0.880;2022-10-30T03:58:00;1011.48;;;14.5;49.0553
73306;BME280;61530;51.158;0.880;2022-10-30T03:58:59;1011.46;;;14.5;49.3081
73306;BME280;61530;51.158;0.880;2022-10-30T04:00:06;1011.46;;;14.5625;48.5869
73306;BME280;61530;51.158;0.880;2022-10-30T04:01:11;1011.47;;;14.5625;49.2174
73306;BME280;61530;51.158;0.880;2022-10-30T04:02:16;1011.55;;;14.5;48.7147
73306;BME280;61530;51.158;0.880;2022-10-30T04:03:17;1011.54;;;14.5;48.5474
73306;BME280;61530;51.158;0.880;2022-10-30T04:04:23;1011.48;;;14.5;48.6733
73306;BME280;61530;51.158;0.880;2022-10-30T04:05:29;1011.51;;;14.5;48.8167
73306;BME280;61530;51.158;0.880;2022-10-30T04:06:29;1011.5;;;14.5;47.6454
73306;BME280;61530;51.158;0.880;2022-10-30T04:07:29;1011.58;;;14.5;48.4953
73306;BME280;61530;51.158;0.880;2022-10-30T04:08:35;1011.58;;;14.4375;48.2538
73306;BME280;61530;51.158;0.880;2022-10-30T04:09:35;1011.53;;;14.4375;49.2969
73306;BME280;61530;51.158;0.880;2022-10-30T04:10:41;1011.53;;;14.4375;48.7566
73306;BME280;61530;51.158;0.880;2022-10-30T04:11:41;1011.55;;;14.5;48.4974
73306;BME280;61530;51.158;0.880;2022-10-30T04:12:47;1011.56;;;14.375;49.1911
73306;BME280;61530;51.158;0.880;2022-10-30T04:13:53;1011.59;;;14.4375;48.2384
73306;BME280;61530;51.158;0.880;2022-10-30T04:14:59;1011.6;;;14.5;48.8085
73306;BME280;61530;51.158;0.880;2022-10-30T04:15:59;1011.62;;;14.5;48.9635
73306;BME280;61530;51.158;0.880;2022-10-30T04:17:05;1011.7;;;14.5;48.2993
73306;BME280;61530;51.158;0.880;2022-10-30T04:18:06;1011.74;;;14.4375;47.8295
73306;BME280;61530;51.158;0.880;2022-10-30T04:19:11;1011.76;;;14.4375;48.0833
73306;BME280;61530;51.158;0.880;2022-10-30T04:20:17;1011.75;;;14.4375;48.0474
73306;BME280;61530;51.158;0.880;2022-10-30T04:21:23;1011.7;;;14.375;48.3151
73306;BME280;61530;51.158;0.880;2022-10-30T04:22:23;1011.65;;;14.4375;48.7505
73306;BME280;61530;51.158;0.880;2022-10-30T04:23:29;1011.62;;;14.4375;48.6456
73306;BME280;61530;51.158;0.880;2022-10-30T04:24:35;1011.63;;;14.4375;48.8196
73306;BME280;61530;51.158;0.880;2022-10-30T04:25:41;1011.64;;;14.375;49.2181
73306;BME280;61530;51.158;0.880;2022-10-30T04:26:47;1011.68;;;14.375;48.5582
73306;BME280;61530;51.158;0.880;2022-10-30T04:27:52;1011.7;;;14.4375;49.058
73306;BME280;61530;51.158;0.880;2022-10-30T04:28:55;1011.69;;;14.4375;48.9269
73306;BME280;61530;51.158;0.880;2022-10-30T04:30:01;1011.7;;;14.4375;48.6654
73306;BME280;61530;51.158;0.880;2022-10-30T04:31:01;1011.72;;;14.4375;48.379
73306;BME280;61530;51.158;0.880;2022-10-30T04:32:04;1011.76;;;14.3125;48.4765
73306;BME280;61530;51.158;0.880;2022-10-30T04:33:10;1011.81;;;14.4375;48.4467
73306;BME280;61530;51.158;0.880;2022-10-30T04:34:15;1011.84;;;14.4375;48.3181
73306;BME280;61530;51.158;0.880;2022-10-30T04:35:17;1011.8;;;14.4375;48.6287
73306;BME280;61530;51.158;0.880;2022-10-30T04:36:21;1011.74;;;14.4375;48.3275
73306;BME280;61530;51.158;0.880;2022-10-30T04:37:21;1011.72;;;14.4375;48.8535
73306;BME280;61530;51.158;0.880;2022-10-30T04:38:27;1011.72;;;14.4375;48.7149
73306;BME280;61530;51.158;0.880;2022-10-30T04:39:33;1011.7;;;14.4375;49.1625
73306;BME280;61530;51.158;0.880;2022-10-30T04:40:41;1011.74;;;14.4375;49.6267
73306;BME280;61530;51.158;0.880;2022-10-30T04:41:39;1011.77;;;14.4375;49.4578
73306;BME280;61530;51.158;0.880;2022-10-30T04:42:46;1011.79;;;14.4375;48.6861
73306;BME280;61530;51.158;0.880;2022-10-30T04:43:47;1011.77;;;14.375;48.4804
73306;BME280;61530;51.158;0.880;2022-10-30T04:44:51;1011.75;;;14.4375;48.3656
73306;BME280;61530;51.158;0.880;2022-10-30T04:45:57;1011.73;;;14.4375;49.1479
73306;BME280;61530;51.158;0.880;2022-10-30T04:47:03;1011.71;;;14.4375;48.7478
73306;BME280;61530;51.158;0.880;2022-10-30T04:48:11;1011.71;;;14.4375;49.608
73306;BME280;61530;51.158;0.880;2022-10-30T04:49:09;1011.71;;;14.4375;48.9481
73306;BME280;61530;51.158;0.880;2022-10-30T04:50:09;1011.7;;;14.4375;49.161
73306;BME280;61530;51.158;0.880;2022-10-30T04:51:15;1011.74;;;14.4375;48.5117
73306;BME280;61530;51.158;0.880;2022-10-30T04:52:21;1011.74;;;14.4375;49.1561
73306;BME280;61530;51.158;0.880;2022-10-30T04:53:27;1011.69;;;14.375;49.5234
73306;BME280;61530;51.158;0.880;2022-10-30T04:54:27;1011.66;;;14.5;49.0951
73306;BME280;61530;51.158;0.880;2022-10-30T04:55:33;1011.65;;;14.4375;48.9855
73306;BME280;61530;51.158;0.880;2022-10-30T04:56:39;1011.61;;;14.4375;49.4151
73306;BME280;61530;51.158;0.880;2022-10-30T04:57:44;1011.58;;;14.4375;49.1404
73306;BME280;61530;51.158;0.880;2022-10-30T04:58:45;1011.57;;;14.4375;49.0882
73306;BME280;61530;51.158;0.880;2022-10-30T04:59:51;1011.53;;;14.4375;49.271
73306;BME280;61530;51.158;0.880;2022-10-30T05:00:51;1011.52;;;14.4375;49.0264
73306;BME280;61530;51.158;0.880;2022-10-30T05:01:57;1011.52;;;14.4375;49.4521
73306;BME280;61530;51.158;0.880;2022-10-30T05:02:58;1011.53;;;14.4375;49.446
73306;BME280;61530;51.158;0.880;2022-10-30T05:04:03;1011.52;;;14.4375;48.6436
73306;BME280;61530;51.158;0.880;2022-10-30T05:05:04;1011.51;;;14.4375;49.0163
73306;BME280;61530;51.158;0.880;2022-10-30T05:06:10;1011.5;;;14.375;48.8965
73306;BME280;61530;51.158;0.880;2022-10-30T05:07:11;1011.46;;;14.375;48.1421
73306;BME280;61530;51.158;0.880;2022-10-30T05:08:19;1011.46;;;14.375;48.3608
73306;BME280;61530;51.158;0.880;2022-10-30T05:09:19;1011.45;;;14.3125;46.6155
73306;BME280;61530;51.158;0.880;2022-10-30T05:10:25;1011.46;;;14.3125;49.7305
73306;BME280;61530;51.158;0.880;2022-10-30T05:11:31;1011.48;;;14.375;47.3846
73306;BME280;61530;51.158;0.880;2022-10-30T05:12:37;1011.47;;;14.3125;48.8881
73306;BME280;61530;51.158;0.880;2022-10-30T05:13:43;1011.46;;;14.3125;47.3813
73306;BME280;61530;51.158;0.880;2022-10-30T05:14:48;1011.48;;;14.25;47.5555
73306;BME280;61530;51.158;0.880;2022-10-30T05:15:49;1011.49;;;14.3125;48.0667
73306;BME280;61530;51.158;0.880;2022-10-30T05:16:55;1011.49;;;14.3125;47.8378
73306;BME280;61530;51.158;0.880;2022-10-30T05:18:00;1011.51;;;14.25;48.0791
73306;BME280;61530;51.158;0.880;2022-10-30T05:19:01;1011.51;;;14.25;48.7136
73306;BME280;61530;51.158;0.880;2022-10-30T05:20:08;1011.48;;;14.25;48.7271
73306;BME280;61530;51.158;0.880;2022-10-30T05:21:12;1011.48;;;14.3125;48.647
73306;BME280;61530;51.158;0.880;2022-10-30T05:22:13;1011.48;;;14.3125;49.1509
73306;BME280;61530;51.158;0.880;2022-10-30T05:23:19;1011.46;;;14.3125;48.6442
73306;BME280;61530;51.158;0.880;2022-10-30T05:24:24;1011.43;;;14.3125;49.1866
73306;BME280;61530;51.158;0.880;2022-10-30T05:25:26;1011.4;;;14.3125;49.1465
73306;BME280;61530;51.158;0.880;2022-10-30T05:26:31;1011.36;;;14.3125;49.2202
73306;BME280;61530;51.158;0.880;2022-10-30T05:27:36;1011.37;;;14.3125;49.1167
73306;BME280;61530;51.158;0.880;2022-10-30T05:28:37;1011.36;;;14.25;49.0244
73306;BME280;61530;51.158;0.880;2022-10-30T05:29:43;1011.37;;;14.3125;49.0477
73306;BME280;61530;51.158;0.880;2022-10-30T05:30:52;1011.4;;;14.375;49.0257